Relevés horaires Eggishorn (Suisse)


Relevés horaires à Eggishorn - Samedi 12 Sept. 2015
Heure UTC1 Température [°C] Vent [km/h] Hum. [%] Pres.4 [hPa] Visi. [Km] Nébu. [octa] Préc.5 [mm] Cond.
2m. Res. Ros. Dir.2 Vit. Moy. Raf.3
23:00 1.9 -3.1 1.9 ESE 22.2 24.1 31.5 100 700 -- -- -- --
22:00 1.8 -2.2 1.8 ESE 14.8 25.9 33.3 100 700 -- -- -- --
21:00 1.5 -3.6 1.5 E 22.2 27.8 37.0 100 700(-0.1/3h) -- -- -- --
20:00 1.2 -4 1.2 E 22.2 27.8 35.2 100 700(0.1/3h) -- -- -- --
19:00 1.1 -3.6 1.1 E 18.5 25.9 37.0 100 700 -- -- -- --
18:00 1.1 -3.6 1.1 E 18.5 29.6 37.0 100 700(0.0/3h) -- -- -- --
17:00 0.9 -5.3 0.9 ESE 29.6 29.6 37.0 100 700(-0.5/3h) -- -- -- --
16:00 1.1 -3.9 1.0 E 20.4 24.1 33.3 99 700(-0.4/3h) -- -- -- --
15:00 1.3 -3.4 1.3 E 18.5 25.9 37.0 100 700(-0.6/3h) -- -- -- --
14:00 1.5 -2.2 1.2 E 13.0 20.4 29.6 98 700(-0.4/3h) -- -- -- --
13:00 1.4 -3.3 1.3 SE 18.5 25.9 37.0 99 700(-0.5/3h) -- -- -- --
12:00 1.5 -3.1 1.4 ESE 18.5 18.5 31.5 99 700(-0.2/3h) -- -- -- --
11:00 1.1 -1.8 1.1 SE 9.3 16.7 22.2 100 700(0.3/3h) -- -- -- --
10:00 1.5 -1.3 1.5 SE 9.3 13.0 22.2 100 700(0.7/3h) -- -- -- --
09:00 1.0 -0.7 1.0 SE 5.6 14.8 22.2 100 700(0.9/3h) -- -- -- --
08:00 1.2 -1.7 0.9 SE 9.3 13.0 22.2 98 700(0.6/3h) -- -- -- --
07:00 1.1 -2.3 0.2 ESE 11.1 14.8 20.4 94 700(0.8/3h) -- -- -- --
06:00 0.1 -3.9 -0.5 ESE 13.0 25.9 35.2 96 700(0.6/3h) -- -- -- --
05:00 -0.4 -4.5 -0.6 ESE 13.0 24.1 29.6 99 700(0.4/3h) -- -- -- --
04:00 -0.4 -6.1 -0.8 ESE 22.2 22.2 29.6 97 700(0.0/3h) -- -- -- --
03:00 -0.5 -6.2 -0.7 ESE 22.2 25.9 35.2 99 700(-0.3/3h) -- -- -- --
02:00 -0.7 -6.4 -1.4 E 22.2 25.9 31.5 95 700(-0.3/3h) -- -- -- --
01:00 -0.9 -7.2 -1.8 E 25.9 25.9 35.2 94 700(-0.2/3h) -- -- -- --
00:00 -0.2 -3.8 -2.1 ESE 11.1 20.4 33.3 87 700(0.2/3h) -- -- -- --

1 Coordinated Universal Time. Actuellement il est 19:00 locale et 17:00 UTC.

2 Le vent souffle depuis la direction indiquée vers la direction oposée.

3 Les rafales max. sont disponible 40 min après l'heure du relevé.

4 Pour les stations d'altitude (plus de 600m) le géopotentiel du niveau le plus proche de la pression obligatoire est indiqué.

5 Les stations disposant d'un diffuseur peuvent indiquer "trace". Cela signifie que des précipitations ont touchés le sol mais que la quantité est inférieure à 0.1 mm.

Copyright

Les données affichées sur cette page sont la propriété exclusive de Météo Suisse.

Récapitulatif de la journée
Température [°C] Vent [km/h] Ensoleillement4 [h] Precipitations totale5 [mm] Pression [Hpa]
Min1 Max.2 Moy.3 Max. Min Max.
-1.2 1.7 22.8 37.0 0 h 54 min 0 700.0 700.0

1 Température minimale relevée entre 18:00 UTC la veille et 18:00 UTC le jour donné.

2 Température maximale relevée entre 06:00 UTC le jour donné et 06:00 UTC le lendemain.

3 Vent moyen de la journée basé sur les relevés horaires.

4 Ensoleillement en heures relevé entre 06:00 UTC la veille et 06:00 UTC le jour donné.

5 Précipitations totales tombées entre 06:00 UTC la jour donné et 06:00 UTC le lendemain.

Graphiques horaires